sensor_id;sensor_type;location;lat;lon;timestamp;P1;durP1;ratioP1;P2;durP2;ratioP2
39452;SDS011;25154;-33.684;151.102;2022-07-22T00:02:26;7.80;;;1.25;;
39452;SDS011;25154;-33.684;151.102;2022-07-22T00:07:28;8.73;;;1.30;;
39452;SDS011;25154;-33.684;151.102;2022-07-22T00:12:31;13.63;;;1.40;;
39452;SDS011;25154;-33.684;151.102;2022-07-22T00:17:34;9.77;;;1.40;;
39452;SDS011;25154;-33.684;151.102;2022-07-22T00:22:37;9.77;;;1.30;;
39452;SDS011;25154;-33.684;151.102;2022-07-22T00:27:40;6.47;;;1.70;;
39452;SDS011;25154;-33.684;151.102;2022-07-22T00:32:43;10.95;;;1.40;;
39452;SDS011;25154;-33.684;151.102;2022-07-22T00:37:46;10.05;;;1.40;;
39452;SDS011;25154;-33.684;151.102;2022-07-22T00:42:48;9.77;;;1.55;;
39452;SDS011;25154;-33.684;151.102;2022-07-22T00:47:51;11.98;;;1.63;;
39452;SDS011;25154;-33.684;151.102;2022-07-22T00:52:54;10.98;;;1.70;;
39452;SDS011;25154;-33.684;151.102;2022-07-22T00:57:57;7.15;;;1.48;;
39452;SDS011;25154;-33.684;151.102;2022-07-22T01:03:00;5.78;;;1.50;;
39452;SDS011;25154;-33.684;151.102;2022-07-22T01:08:04;6.88;;;1.38;;
39452;SDS011;25154;-33.684;151.102;2022-07-22T01:13:07;7.15;;;1.40;;
39452;SDS011;25154;-33.684;151.102;2022-07-22T01:18:10;10.90;;;1.50;;
39452;SDS011;25154;-33.684;151.102;2022-07-22T01:23:13;16.00;;;1.50;;
39452;SDS011;25154;-33.684;151.102;2022-07-22T01:28:19;5.80;;;1.20;;
39452;SDS011;25154;-33.684;151.102;2022-07-22T01:33:22;7.72;;;1.20;;
39452;SDS011;25154;-33.684;151.102;2022-07-22T01:38:27;11.95;;;1.35;;
39452;SDS011;25154;-33.684;151.102;2022-07-22T01:43:31;3.75;;;0.80;;
39452;SDS011;25154;-33.684;151.102;2022-07-22T01:48:34;3.05;;;0.85;;
39452;SDS011;25154;-33.684;151.102;2022-07-22T01:53:37;8.13;;;1.10;;
39452;SDS011;25154;-33.684;151.102;2022-07-22T01:58:40;7.63;;;1.00;;
39452;SDS011;25154;-33.684;151.102;2022-07-22T02:03:43;5.93;;;1.00;;
39452;SDS011;25154;-33.684;151.102;2022-07-22T02:08:45;8.65;;;1.38;;
39452;SDS011;25154;-33.684;151.102;2022-07-22T02:13:48;7.07;;;1.17;;
39452;SDS011;25154;-33.684;151.102;2022-07-22T02:18:51;6.28;;;1.05;;
39452;SDS011;25154;-33.684;151.102;2022-07-22T02:23:55;5.85;;;1.10;;
39452;SDS011;25154;-33.684;151.102;2022-07-22T02:28:58;6.72;;;1.17;;
39452;SDS011;25154;-33.684;151.102;2022-07-22T02:34:01;7.00;;;1.42;;
39452;SDS011;25154;-33.684;151.102;2022-07-22T02:39:04;5.03;;;0.90;;
39452;SDS011;25154;-33.684;151.102;2022-07-22T02:44:07;5.70;;;1.05;;
39452;SDS011;25154;-33.684;151.102;2022-07-22T02:49:12;4.38;;;1.00;;
39452;SDS011;25154;-33.684;151.102;2022-07-22T02:54:16;4.38;;;1.02;;
39452;SDS011;25154;-33.684;151.102;2022-07-22T02:59:19;8.82;;;1.02;;
39452;SDS011;25154;-33.684;151.102;2022-07-22T03:04:22;5.38;;;0.82;;
39452;SDS011;25154;-33.684;151.102;2022-07-22T03:09:24;4.07;;;0.82;;
39452;SDS011;25154;-33.684;151.102;2022-07-22T03:14:27;3.38;;;0.90;;
39452;SDS011;25154;-33.684;151.102;2022-07-22T03:19:30;3.88;;;0.75;;
39452;SDS011;25154;-33.684;151.102;2022-07-22T03:24:33;6.18;;;1.45;;
39452;SDS011;25154;-33.684;151.102;2022-07-22T03:29:37;4.13;;;0.80;;
39452;SDS011;25154;-33.684;151.102;2022-07-22T03:34:41;8.75;;;1.48;;
39452;SDS011;25154;-33.684;151.102;2022-07-22T03:39:43;7.25;;;0.95;;
39452;SDS011;25154;-33.684;151.102;2022-07-22T03:44:46;6.38;;;1.10;;
39452;SDS011;25154;-33.684;151.102;2022-07-22T03:49:49;4.65;;;0.90;;
39452;SDS011;25154;-33.684;151.102;2022-07-22T03:54:52;6.65;;;1.00;;
39452;SDS011;25154;-33.684;151.102;2022-07-22T03:59:55;3.08;;;1.25;;
39452;SDS011;25154;-33.684;151.102;2022-07-22T04:04:58;6.40;;;0.80;;
39452;SDS011;25154;-33.684;151.102;2022-07-22T04:10:00;6.90;;;1.15;;
39452;SDS011;25154;-33.684;151.102;2022-07-22T04:15:08;6.38;;;1.02;;
39452;SDS011;25154;-33.684;151.102;2022-07-22T04:20:11;4.85;;;1.23;;
39452;SDS011;25154;-33.684;151.102;2022-07-22T04:25:14;10.52;;;1.30;;
39452;SDS011;25154;-33.684;151.102;2022-07-22T04:30:18;5.97;;;1.30;;
39452;SDS011;25154;-33.684;151.102;2022-07-22T04:35:21;4.32;;;1.08;;
39452;SDS011;25154;-33.684;151.102;2022-07-22T04:40:23;4.75;;;1.00;;
39452;SDS011;25154;-33.684;151.102;2022-07-22T04:45:25;5.93;;;1.30;;
39452;SDS011;25154;-33.684;151.102;2022-07-22T04:50:28;6.90;;;1.40;;
39452;SDS011;25154;-33.684;151.102;2022-07-22T04:55:30;5.88;;;1.40;;
39452;SDS011;25154;-33.684;151.102;2022-07-22T05:00:33;10.50;;;1.73;;
39452;SDS011;25154;-33.684;151.102;2022-07-22T05:05:35;10.98;;;1.70;;
39452;SDS011;25154;-33.684;151.102;2022-07-22T05:10:37;12.05;;;2.08;;
39452;SDS011;25154;-33.684;151.102;2022-07-22T05:15:40;6.38;;;1.52;;
39452;SDS011;25154;-33.684;151.102;2022-07-22T05:20:42;6.22;;;1.38;;
39452;SDS011;25154;-33.684;151.102;2022-07-22T05:25:46;5.53;;;1.77;;
39452;SDS011;25154;-33.684;151.102;2022-07-22T05:30:48;13.65;;;2.05;;
39452;SDS011;25154;-33.684;151.102;2022-07-22T05:35:51;11.82;;;2.20;;
39452;SDS011;25154;-33.684;151.102;2022-07-22T05:40:53;8.85;;;1.30;;
39452;SDS011;25154;-33.684;151.102;2022-07-22T05:45:55;6.97;;;1.35;;
39452;SDS011;25154;-33.684;151.102;2022-07-22T05:50:58;7.32;;;1.40;;
39452;SDS011;25154;-33.684;151.102;2022-07-22T05:56:00;11.98;;;1.60;;
39452;SDS011;25154;-33.684;151.102;2022-07-22T06:01:02;11.13;;;1.90;;
39452;SDS011;25154;-33.684;151.102;2022-07-22T06:06:05;8.10;;;1.55;;
39452;SDS011;25154;-33.684;151.102;2022-07-22T06:11:10;8.25;;;1.65;;
39452;SDS011;25154;-33.684;151.102;2022-07-22T06:16:12;9.25;;;2.28;;
39452;SDS011;25154;-33.684;151.102;2022-07-22T06:21:15;9.18;;;2.78;;
39452;SDS011;25154;-33.684;151.102;2022-07-22T06:26:17;9.10;;;2.10;;
39452;SDS011;25154;-33.684;151.102;2022-07-22T06:31:19;10.73;;;1.70;;
39452;SDS011;25154;-33.684;151.102;2022-07-22T06:36:21;9.40;;;1.65;;
39452;SDS011;25154;-33.684;151.102;2022-07-22T06:41:24;4.65;;;1.40;;
39452;SDS011;25154;-33.684;151.102;2022-07-22T06:46:27;6.93;;;1.35;;
39452;SDS011;25154;-33.684;151.102;2022-07-22T06:51:29;14.38;;;2.95;;
39452;SDS011;25154;-33.684;151.102;2022-07-22T06:56:32;21.63;;;6.55;;
39452;SDS011;25154;-33.684;151.102;2022-07-22T07:01:35;16.23;;;6.05;;
39452;SDS011;25154;-33.684;151.102;2022-07-22T07:06:38;15.27;;;5.45;;
39452;SDS011;25154;-33.684;151.102;2022-07-22T07:11:40;12.38;;;3.40;;
39452;SDS011;25154;-33.684;151.102;2022-07-22T07:16:43;12.02;;;3.08;;
39452;SDS011;25154;-33.684;151.102;2022-07-22T07:21:46;12.88;;;4.72;;
39452;SDS011;25154;-33.684;151.102;2022-07-22T07:26:48;11.10;;;2.25;;
39452;SDS011;25154;-33.684;151.102;2022-07-22T07:31:51;15.30;;;6.78;;
39452;SDS011;25154;-33.684;151.102;2022-07-22T07:36:54;30.45;;;13.48;;
39452;SDS011;25154;-33.684;151.102;2022-07-22T07:41:59;21.90;;;6.68;;
39452;SDS011;25154;-33.684;151.102;2022-07-22T07:47:01;17.77;;;5.18;;
39452;SDS011;25154;-33.684;151.102;2022-07-22T07:52:04;15.32;;;3.97;;
39452;SDS011;25154;-33.684;151.102;2022-07-22T07:57:07;11.85;;;3.88;;
39452;SDS011;25154;-33.684;151.102;2022-07-22T08:02:10;13.05;;;4.20;;
39452;SDS011;25154;-33.684;151.102;2022-07-22T08:07:13;19.23;;;6.45;;
39452;SDS011;25154;-33.684;151.102;2022-07-22T08:12:16;12.02;;;4.25;;
39452;SDS011;25154;-33.684;151.102;2022-07-22T08:17:18;17.70;;;7.85;;
39452;SDS011;25154;-33.684;151.102;2022-07-22T08:22:20;11.52;;;4.85;;
39452;SDS011;25154;-33.684;151.102;2022-07-22T08:27:23;14.65;;;3.25;;
39452;SDS011;25154;-33.684;151.102;2022-07-22T08:32:26;18.08;;;4.10;;
39452;SDS011;25154;-33.684;151.102;2022-07-22T08:37:30;14.88;;;3.55;;
39452;SDS011;25154;-33.684;151.102;2022-07-22T08:42:36;18.35;;;6.93;;
39452;SDS011;25154;-33.684;151.102;2022-07-22T08:47:46;13.52;;;4.22;;
39452;SDS011;25154;-33.684;151.102;2022-07-22T08:52:52;17.02;;;4.50;;
39452;SDS011;25154;-33.684;151.102;2022-07-22T08:57:55;13.35;;;3.30;;
39452;SDS011;25154;-33.684;151.102;2022-07-22T09:02:57;13.00;;;2.83;;
39452;SDS011;25154;-33.684;151.102;2022-07-22T09:07:59;11.75;;;2.58;;
39452;SDS011;25154;-33.684;151.102;2022-07-22T09:13:03;10.90;;;2.50;;
39452;SDS011;25154;-33.684;151.102;2022-07-22T09:18:06;19.13;;;4.15;;
39452;SDS011;25154;-33.684;151.102;2022-07-22T09:23:13;12.75;;;2.78;;
39452;SDS011;25154;-33.684;151.102;2022-07-22T09:28:23;13.50;;;3.60;;
39452;SDS011;25154;-33.684;151.102;2022-07-22T09:33:27;10.57;;;3.08;;
39452;SDS011;25154;-33.684;151.102;2022-07-22T09:38:30;18.92;;;7.57;;
39452;SDS011;25154;-33.684;151.102;2022-07-22T09:43:35;16.58;;;6.53;;
39452;SDS011;25154;-33.684;151.102;2022-07-22T09:48:38;19.02;;;5.43;;
39452;SDS011;25154;-33.684;151.102;2022-07-22T09:53:41;15.18;;;4.32;;
39452;SDS011;25154;-33.684;151.102;2022-07-22T09:58:43;11.60;;;3.00;;
39452;SDS011;25154;-33.684;151.102;2022-07-22T10:03:46;9.70;;;2.30;;
39452;SDS011;25154;-33.684;151.102;2022-07-22T10:08:51;10.95;;;2.28;;
39452;SDS011;25154;-33.684;151.102;2022-07-22T10:13:56;14.52;;;1.77;;
39452;SDS011;25154;-33.684;151.102;2022-07-22T10:18:59;7.40;;;2.13;;
39452;SDS011;25154;-33.684;151.102;2022-07-22T10:24:08;9.48;;;3.58;;
39452;SDS011;25154;-33.684;151.102;2022-07-22T10:29:26;27.27;;;14.10;;
39452;SDS011;25154;-33.684;151.102;2022-07-22T10:34:32;14.80;;;5.93;;
39452;SDS011;25154;-33.684;151.102;2022-07-22T10:39:34;17.90;;;9.40;;
39452;SDS011;25154;-33.684;151.102;2022-07-22T10:44:46;19.75;;;9.57;;
39452;SDS011;25154;-33.684;151.102;2022-07-22T10:49:49;9.45;;;5.10;;
39452;SDS011;25154;-33.684;151.102;2022-07-22T11:00:22;12.10;;;2.40;;
39452;SDS011;25154;-33.684;151.102;2022-07-22T11:05:26;10.70;;;2.70;;
39452;SDS011;25154;-33.684;151.102;2022-07-22T11:10:32;10.02;;;2.42;;
39452;SDS011;25154;-33.684;151.102;2022-07-22T11:15:35;6.47;;;2.65;;
39452;SDS011;25154;-33.684;151.102;2022-07-22T11:20:38;10.38;;;7.72;;
39452;SDS011;25154;-33.684;151.102;2022-07-22T11:25:42;10.13;;;3.42;;
39452;SDS011;25154;-33.684;151.102;2022-07-22T11:30:45;6.20;;;2.50;;
39452;SDS011;25154;-33.684;151.102;2022-07-22T11:36:06;9.95;;;4.15;;
39452;SDS011;25154;-33.684;151.102;2022-07-22T11:41:13;12.35;;;4.97;;
39452;SDS011;25154;-33.684;151.102;2022-07-22T11:46:19;11.50;;;3.00;;
39452;SDS011;25154;-33.684;151.102;2022-07-22T11:51:27;8.20;;;4.43;;
39452;SDS011;25154;-33.684;151.102;2022-07-22T11:56:32;5.95;;;4.20;;
39452;SDS011;25154;-33.684;151.102;2022-07-22T12:01:36;11.13;;;3.03;;
39452;SDS011;25154;-33.684;151.102;2022-07-22T12:06:40;11.60;;;3.10;;
39452;SDS011;25154;-33.684;151.102;2022-07-22T12:11:47;9.95;;;2.70;;
39452;SDS011;25154;-33.684;151.102;2022-07-22T12:16:54;12.95;;;2.25;;
39452;SDS011;25154;-33.684;151.102;2022-07-22T12:27:07;10.88;;;3.17;;
39452;SDS011;25154;-33.684;151.102;2022-07-22T12:37:21;13.88;;;5.97;;
39452;SDS011;25154;-33.684;151.102;2022-07-22T12:42:26;14.75;;;5.57;;
39452;SDS011;25154;-33.684;151.102;2022-07-22T12:52:48;16.77;;;4.32;;
39452;SDS011;25154;-33.684;151.102;2022-07-22T12:57:52;13.75;;;6.65;;
39452;SDS011;25154;-33.684;151.102;2022-07-22T13:02:55;8.90;;;4.47;;
39452;SDS011;25154;-33.684;151.102;2022-07-22T13:08:00;14.52;;;4.10;;
39452;SDS011;25154;-33.684;151.102;2022-07-22T13:13:03;12.00;;;3.92;;
39452;SDS011;25154;-33.684;151.102;2022-07-22T13:18:05;12.80;;;4.80;;
39452;SDS011;25154;-33.684;151.102;2022-07-22T13:23:08;12.02;;;4.65;;
39452;SDS011;25154;-33.684;151.102;2022-07-22T13:28:11;19.17;;;6.15;;
39452;SDS011;25154;-33.684;151.102;2022-07-22T13:33:13;19.08;;;8.13;;
39452;SDS011;25154;-33.684;151.102;2022-07-22T13:38:17;15.65;;;6.55;;
39452;SDS011;25154;-33.684;151.102;2022-07-22T13:43:20;9.77;;;5.15;;
39452;SDS011;25154;-33.684;151.102;2022-07-22T13:48:26;14.48;;;3.90;;
39452;SDS011;25154;-33.684;151.102;2022-07-22T13:53:28;7.65;;;2.95;;
39452;SDS011;25154;-33.684;151.102;2022-07-22T13:58:30;10.57;;;3.00;;
39452;SDS011;25154;-33.684;151.102;2022-07-22T14:03:33;27.83;;;8.32;;
39452;SDS011;25154;-33.684;151.102;2022-07-22T14:08:36;15.43;;;5.32;;
39452;SDS011;25154;-33.684;151.102;2022-07-22T14:13:38;15.63;;;3.53;;
39452;SDS011;25154;-33.684;151.102;2022-07-22T14:18:41;13.45;;;3.17;;
39452;SDS011;25154;-33.684;151.102;2022-07-22T14:23:43;9.40;;;3.25;;
39452;SDS011;25154;-33.684;151.102;2022-07-22T14:28:45;8.85;;;3.45;;
39452;SDS011;25154;-33.684;151.102;2022-07-22T14:33:48;12.18;;;3.75;;
39452;SDS011;25154;-33.684;151.102;2022-07-22T14:38:51;20.27;;;3.63;;
39452;SDS011;25154;-33.684;151.102;2022-07-22T14:43:56;12.07;;;4.47;;
39452;SDS011;25154;-33.684;151.102;2022-07-22T14:48:59;17.08;;;5.70;;
39452;SDS011;25154;-33.684;151.102;2022-07-22T14:54:03;17.52;;;5.30;;
39452;SDS011;25154;-33.684;151.102;2022-07-22T14:59:09;14.68;;;4.90;;
39452;SDS011;25154;-33.684;151.102;2022-07-22T15:04:14;12.57;;;4.35;;
39452;SDS011;25154;-33.684;151.102;2022-07-22T15:09:18;8.02;;;3.50;;
39452;SDS011;25154;-33.684;151.102;2022-07-22T15:14:22;13.45;;;2.90;;
39452;SDS011;25154;-33.684;151.102;2022-07-22T15:19:25;8.50;;;2.60;;
39452;SDS011;25154;-33.684;151.102;2022-07-22T15:24:31;19.25;;;4.60;;
39452;SDS011;25154;-33.684;151.102;2022-07-22T15:29:35;20.92;;;5.95;;
39452;SDS011;25154;-33.684;151.102;2022-07-22T15:34:39;32.70;;;6.28;;
39452;SDS011;25154;-33.684;151.102;2022-07-22T15:39:43;15.48;;;3.65;;
39452;SDS011;25154;-33.684;151.102;2022-07-22T15:44:47;14.25;;;3.42;;
39452;SDS011;25154;-33.684;151.102;2022-07-22T15:49:51;12.93;;;4.53;;
39452;SDS011;25154;-33.684;151.102;2022-07-22T15:54:54;26.17;;;5.05;;
39452;SDS011;25154;-33.684;151.102;2022-07-22T15:59:57;18.30;;;4.53;;
39452;SDS011;25154;-33.684;151.102;2022-07-22T16:05:00;17.48;;;4.75;;
39452;SDS011;25154;-33.684;151.102;2022-07-22T16:10:02;18.85;;;5.22;;
39452;SDS011;25154;-33.684;151.102;2022-07-22T16:15:07;16.40;;;5.40;;
39452;SDS011;25154;-33.684;151.102;2022-07-22T16:20:11;14.85;;;4.45;;
39452;SDS011;25154;-33.684;151.102;2022-07-22T16:25:13;14.23;;;4.82;;
39452;SDS011;25154;-33.684;151.102;2022-07-22T16:30:16;9.02;;;3.75;;
39452;SDS011;25154;-33.684;151.102;2022-07-22T16:35:19;12.18;;;4.18;;
39452;SDS011;25154;-33.684;151.102;2022-07-22T16:40:22;11.40;;;3.75;;
39452;SDS011;25154;-33.684;151.102;2022-07-22T16:45:25;13.52;;;3.20;;
39452;SDS011;25154;-33.684;151.102;2022-07-22T16:50:29;17.60;;;3.03;;
39452;SDS011;25154;-33.684;151.102;2022-07-22T16:55:32;10.70;;;2.50;;
39452;SDS011;25154;-33.684;151.102;2022-07-22T17:00:36;25.33;;;3.10;;
39452;SDS011;25154;-33.684;151.102;2022-07-22T17:05:39;12.02;;;2.47;;
39452;SDS011;25154;-33.684;151.102;2022-07-22T17:10:41;8.07;;;2.30;;
39452;SDS011;25154;-33.684;151.102;2022-07-22T17:15:44;17.75;;;7.63;;
39452;SDS011;25154;-33.684;151.102;2022-07-22T17:20:47;16.83;;;5.90;;
39452;SDS011;25154;-33.684;151.102;2022-07-22T17:25:49;14.00;;;4.15;;
39452;SDS011;25154;-33.684;151.102;2022-07-22T17:30:51;13.75;;;3.67;;
39452;SDS011;25154;-33.684;151.102;2022-07-22T17:35:54;28.02;;;3.78;;
39452;SDS011;25154;-33.684;151.102;2022-07-22T17:40:58;9.20;;;2.20;;
39452;SDS011;25154;-33.684;151.102;2022-07-22T17:46:00;9.85;;;2.78;;
39452;SDS011;25154;-33.684;151.102;2022-07-22T17:51:03;13.23;;;2.50;;
39452;SDS011;25154;-33.684;151.102;2022-07-22T17:56:06;21.35;;;2.83;;
39452;SDS011;25154;-33.684;151.102;2022-07-22T18:01:09;9.95;;;2.53;;
39452;SDS011;25154;-33.684;151.102;2022-07-22T18:06:13;8.82;;;2.95;;
39452;SDS011;25154;-33.684;151.102;2022-07-22T18:11:15;9.88;;;3.70;;
39452;SDS011;25154;-33.684;151.102;2022-07-22T18:16:18;14.90;;;3.05;;
39452;SDS011;25154;-33.684;151.102;2022-07-22T18:21:20;10.38;;;2.78;;
39452;SDS011;25154;-33.684;151.102;2022-07-22T18:26:22;11.77;;;3.17;;
39452;SDS011;25154;-33.684;151.102;2022-07-22T18:31:25;9.88;;;3.03;;
39452;SDS011;25154;-33.684;151.102;2022-07-22T18:36:27;15.73;;;2.60;;
39452;SDS011;25154;-33.684;151.102;2022-07-22T18:41:30;9.55;;;2.38;;
39452;SDS011;25154;-33.684;151.102;2022-07-22T18:46:32;105.45;;;5.65;;
39452;SDS011;25154;-33.684;151.102;2022-07-22T18:51:35;14.05;;;2.80;;
39452;SDS011;25154;-33.684;151.102;2022-07-22T18:56:38;6.60;;;1.20;;
39452;SDS011;25154;-33.684;151.102;2022-07-22T19:01:41;7.57;;;1.40;;
39452;SDS011;25154;-33.684;151.102;2022-07-22T19:06:44;6.75;;;1.30;;
39452;SDS011;25154;-33.684;151.102;2022-07-22T19:11:48;2.28;;;1.40;;
39452;SDS011;25154;-33.684;151.102;2022-07-22T19:16:50;9.80;;;2.25;;
39452;SDS011;25154;-33.684;151.102;2022-07-22T19:21:53;12.10;;;3.35;;
39452;SDS011;25154;-33.684;151.102;2022-07-22T19:26:56;8.45;;;2.38;;
39452;SDS011;25154;-33.684;151.102;2022-07-22T19:31:59;7.25;;;1.63;;
39452;SDS011;25154;-33.684;151.102;2022-07-22T19:37:01;4.60;;;1.55;;
39452;SDS011;25154;-33.684;151.102;2022-07-22T19:42:04;16.30;;;1.60;;
39452;SDS011;25154;-33.684;151.102;2022-07-22T19:47:07;4.47;;;1.25;;
39452;SDS011;25154;-33.684;151.102;2022-07-22T19:52:10;10.23;;;1.30;;
39452;SDS011;25154;-33.684;151.102;2022-07-22T19:57:12;4.80;;;1.35;;
39452;SDS011;25154;-33.684;151.102;2022-07-22T20:02:15;8.57;;;1.20;;
39452;SDS011;25154;-33.684;151.102;2022-07-22T20:07:18;1.98;;;0.82;;
39452;SDS011;25154;-33.684;151.102;2022-07-22T20:12:20;5.45;;;1.10;;
39452;SDS011;25154;-33.684;151.102;2022-07-22T20:17:23;4.63;;;1.23;;
39452;SDS011;25154;-33.684;151.102;2022-07-22T20:22:26;7.30;;;2.20;;
39452;SDS011;25154;-33.684;151.102;2022-07-22T20:27:30;7.28;;;2.50;;
39452;SDS011;25154;-33.684;151.102;2022-07-22T20:32:32;16.75;;;3.40;;
39452;SDS011;25154;-33.684;151.102;2022-07-22T20:37:35;16.27;;;3.90;;
39452;SDS011;25154;-33.684;151.102;2022-07-22T20:42:38;8.80;;;2.15;;
39452;SDS011;25154;-33.684;151.102;2022-07-22T20:47:41;6.25;;;1.50;;
39452;SDS011;25154;-33.684;151.102;2022-07-22T20:52:43;7.20;;;1.40;;
39452;SDS011;25154;-33.684;151.102;2022-07-22T20:57:46;4.30;;;1.35;;
39452;SDS011;25154;-33.684;151.102;2022-07-22T21:02:50;6.13;;;1.30;;
39452;SDS011;25154;-33.684;151.102;2022-07-22T21:07:54;6.63;;;1.85;;
39452;SDS011;25154;-33.684;151.102;2022-07-22T21:13:01;6.55;;;2.30;;
39452;SDS011;25154;-33.684;151.102;2022-07-22T21:18:05;6.93;;;2.00;;
39452;SDS011;25154;-33.684;151.102;2022-07-22T21:23:08;9.00;;;3.17;;
39452;SDS011;25154;-33.684;151.102;2022-07-22T21:28:13;10.82;;;3.00;;
39452;SDS011;25154;-33.684;151.102;2022-07-22T21:33:18;21.48;;;5.97;;
39452;SDS011;25154;-33.684;151.102;2022-07-22T21:38:21;28.88;;;5.95;;
39452;SDS011;25154;-33.684;151.102;2022-07-22T21:43:24;24.75;;;7.20;;
39452;SDS011;25154;-33.684;151.102;2022-07-22T21:48:26;22.83;;;6.93;;
39452;SDS011;25154;-33.684;151.102;2022-07-22T21:53:30;22.13;;;6.88;;
39452;SDS011;25154;-33.684;151.102;2022-07-22T21:58:34;20.42;;;7.13;;
39452;SDS011;25154;-33.684;151.102;2022-07-22T22:03:36;18.55;;;6.72;;
39452;SDS011;25154;-33.684;151.102;2022-07-22T22:08:39;14.93;;;6.13;;
39452;SDS011;25154;-33.684;151.102;2022-07-22T22:13:41;17.45;;;6.00;;
39452;SDS011;25154;-33.684;151.102;2022-07-22T22:18:43;14.60;;;5.50;;
39452;SDS011;25154;-33.684;151.102;2022-07-22T22:23:46;13.80;;;6.05;;
39452;SDS011;25154;-33.684;151.102;2022-07-22T22:28:48;13.35;;;4.75;;
39452;SDS011;25154;-33.684;151.102;2022-07-22T22:33:50;12.73;;;4.65;;
39452;SDS011;25154;-33.684;151.102;2022-07-22T22:38:53;17.30;;;4.28;;
39452;SDS011;25154;-33.684;151.102;2022-07-22T22:43:57;8.95;;;3.90;;
39452;SDS011;25154;-33.684;151.102;2022-07-22T22:49:00;15.70;;;5.10;;
39452;SDS011;25154;-33.684;151.102;2022-07-22T22:54:02;12.13;;;4.60;;
39452;SDS011;25154;-33.684;151.102;2022-07-22T22:59:05;13.05;;;5.43;;
39452;SDS011;25154;-33.684;151.102;2022-07-22T23:04:07;15.73;;;6.07;;
39452;SDS011;25154;-33.684;151.102;2022-07-22T23:09:11;20.02;;;6.18;;
39452;SDS011;25154;-33.684;151.102;2022-07-22T23:14:13;9.63;;;4.00;;
39452;SDS011;25154;-33.684;151.102;2022-07-22T23:19:16;6.63;;;3.35;;
39452;SDS011;25154;-33.684;151.102;2022-07-22T23:24:18;8.32;;;3.22;;
39452;SDS011;25154;-33.684;151.102;2022-07-22T23:29:20;9.23;;;4.13;;
39452;SDS011;25154;-33.684;151.102;2022-07-22T23:34:23;7.22;;;4.00;;
39452;SDS011;25154;-33.684;151.102;2022-07-22T23:39:25;9.38;;;4.93;;
39452;SDS011;25154;-33.684;151.102;2022-07-22T23:44:28;10.43;;;5.50;;
39452;SDS011;25154;-33.684;151.102;2022-07-22T23:49:31;9.60;;;5.13;;
39452;SDS011;25154;-33.684;151.102;2022-07-22T23:54:33;15.18;;;6.90;;
39452;SDS011;25154;-33.684;151.102;2022-07-22T23:59:35;9.85;;;5.40;;
